TimeCDT,TemperatureF,Dew PointF,Humidity,Sea Level PressureIn,VisibilityMPH,Wind Direction,Wind SpeedMPH,Gust SpeedMPH,PrecipitationIn,Events,Conditions,WindDirDegrees,DateUTC
12:53 AM,73.0,70.0,90,29.67,9.0,SW,3.5,-,N/A,,Clear,230,2013-05-21 05:53:00
1:53 AM,71.1,69.1,93,29.66,10.0,SSE,3.5,-,N/A,,Clear,160,2013-05-21 06:53:00
2:53 AM,70.0,68.0,93,29.65,8.0,Calm,Calm,-,N/A,,Clear,0,2013-05-21 07:53:00
3:53 AM,69.1,66.9,93,29.65,6.0,Calm,Calm,-,N/A,,Clear,0,2013-05-21 08:53:00
4:46 AM,68.0,66.2,94,30.00,1.5,Calm,Calm,-,N/A,,Partly Cloudy,0,2013-05-21 09:46:00
4:53 AM,66.9,66.9,100,29.67,1.2,SE,3.5,-,N/A,,Partly Cloudy,130,2013-05-21 09:53:00
4:56 AM,66.2,66.2,100,30.00,4.0,Calm,Calm,-,N/A,,Clear,0,2013-05-21 09:56:00
5:30 AM,66.2,66.2,100,30.00,5.0,Calm,Calm,-,N/A,,Scattered Clouds,0,2013-05-21 10:30:00
5:39 AM,66.2,66.2,100,30.01,6.0,Calm,Calm,-,N/A,,Mostly Cloudy,0,2013-05-21 10:39:00
5:51 AM,68.0,66.2,94,30.01,0.8,Calm,Calm,-,N/A,,Overcast,0,2013-05-21 10:51:00
5:53 AM,68.0,66.9,96,29.68,0.5,Calm,Calm,-,N/A,Fog,Fog,0,2013-05-21 10:53:00
6:53 AM,70.0,70.0,100,29.69,0.2,Calm,Calm,-,N/A,Fog,Fog,0,2013-05-21 11:53:00
7:53 AM,71.1,70.0,96,29.71,0.2,Calm,Calm,-,N/A,Fog,Fog,0,2013-05-21 12:53:00
8:36 AM,71.6,69.8,94,30.05,2.0,Calm,Calm,-,N/A,,Overcast,0,2013-05-21 13:36:00
8:44 AM,71.6,69.8,94,30.05,5.0,Calm,Calm,-,N/A,,Overcast,0,2013-05-21 13:44:00
8:53 AM,72.0,71.1,97,29.72,7.0,Calm,Calm,-,N/A,,Overcast,0,2013-05-21 13:53:00
9:09 AM,73.4,69.8,88,30.05,10.0,Calm,Calm,-,N/A,,Overcast,0,2013-05-21 14:09:00
9:33 AM,77.0,69.8,78,30.04,10.0,Calm,Calm,-,N/A,,Partly Cloudy,0,2013-05-21 14:33:00
9:53 AM,78.1,70.0,76,29.72,10.0,Calm,Calm,-,N/A,,Clear,0,2013-05-21 14:53:00
10:53 AM,82.0,69.1,65,29.71,10.0,Calm,Calm,-,N/A,,Clear,0,2013-05-21 15:53:00
11:53 AM,86.0,66.9,53,29.69,10.0,Variable,5.8,-,N/A,,Clear,0,2013-05-21 16:53:00
12:53 PM,87.1,63.0,44,29.68,10.0,Calm,Calm,-,N/A,,Clear,0,2013-05-21 17:53:00
1:53 PM,89.1,64.9,45,29.65,10.0,Calm,Calm,-,N/A,,Clear,0,2013-05-21 18:53:00
2:53 PM,90.0,64.9,43,29.63,10.0,SSE,6.9,-,N/A,,Clear,150,2013-05-21 19:53:00
3:53 PM,91.0,64.9,42,29.61,10.0,Variable,5.8,-,N/A,,Mostly Cloudy,0,2013-05-21 20:53:00
4:53 PM,90.0,64.9,43,29.59,10.0,SW,6.9,-,N/A,,Clear,220,2013-05-21 21:53:00
5:53 PM,89.1,64.9,45,29.57,10.0,SW,4.6,-,N/A,,Clear,220,2013-05-21 22:53:00
6:53 PM,87.1,66.0,49,29.57,10.0,Calm,Calm,-,N/A,,Clear,0,2013-05-21 23:53:00
7:53 PM,82.9,68.0,60,29.57,10.0,Calm,Calm,-,N/A,,Clear,0,2013-05-22 00:53:00
8:53 PM,79.0,68.0,69,29.60,10.0,SSW,4.6,-,N/A,,Clear,200,2013-05-22 01:53:00
9:53 PM,77.0,66.0,69,29.63,10.0,SSW,3.5,-,N/A,,Clear,200,2013-05-22 02:53:00
10:53 PM,75.0,66.9,76,29.65,10.0,WSW,3.5,-,N/A,,Clear,240,2013-05-22 03:53:00
11:53 PM,73.0,66.9,81,29.64,10.0,South,3.5,-,N/A,,Clear,190,2013-05-22 04:53:00